Airfield :
LOGIN :

Register | Disclaimer

   EN    FR    IT 

 










Legend :    VFR   Marginal VFR   IFR   Intensive IFR   Very Intensive IFR
Visi :
Ceiling :
>= 8 km
>= 3000ft
5 to 8 km
1000 to 3000 ft
1500m to 5 km
500 to 1000 ft
800 to 1500m
200 to 500 ft
< 800m
< 200 ft
Symbols :   Thunderstorms  Fog  Heavy snow  Heavy precipitations  Wind > 20 kt
SIGMETs :     Misc.  Thunderstorms  Icing  Turbulence  Mountain Waves  Volcanic Ashes






- Airport Elevation : 290 ft
- IATA code : ACI


EGJA - Alderney

CURRENT METAR :
  • 141350Z 26007KT 9999 FEW012 11/08 Q1024

EXPIRED METARs :
  • 141320Z 26006KT 220V290 9999 FEW012 12/08 Q1024
  • 141250Z 27006KT 240V310 9999 FEW012 12/09 Q1025
  • 141220Z 29006KT 260V340 9999 FEW012 12/09 Q1025
  • 141150Z 27005KT 220V330 9999 FEW012 12/09 Q1025
  • 141120Z 30005KT 210V350 9999 FEW012 12/10 Q1026
  • 141050Z 31004KT 260V360 9999 FEW012 11/08 Q1026
  • 141020Z 31005KT 270V340 9999 FEW010 11/09 Q1026
  • 140950Z 32005KT 290V360 9999 FEW018 11/08 Q1026
  • 140920Z VRB03KT 9999 FEW018 12/09 Q1026
  • 140850Z 33005KT 300V010 CAVOK 11/08 Q1026

TAF TAF EGJA
Valid from the 14 at 12:00 until the 14 at 21:00 UTC


141102Z 1412/1421 29010KT 9999 FEW012
PROB30
TEMPO 1415/1417 8000 RA SCT012 BKN060TCU



MET'MAP, your aeronautical weather chart ! - Copyright ORBIFLY December 2007 - Disclaimer

ORBIFLY MET'MAP TEAM :

Programming & Development : Alexandra Zaïnal
Original concept : Baudouin d'Aumeries
Technical & hardware support : Manuel Goepfert
Assistance : Marc-Olivier Méhu




SOURCES & CREDITS :

   NOAA